createdAt,value
2019-01-18T00:02:25.815Z,3.50
2019-01-18T00:04:57.848Z,4.20
2019-01-18T00:07:29.516Z,4.27
2019-01-18T00:10:01.169Z,7.60
2019-01-18T00:12:32.766Z,2.50
2019-01-18T00:15:05.713Z,5.27
2019-01-18T00:17:37.317Z,4.43
2019-01-18T00:20:09.939Z,5.03
2019-01-18T00:22:41.558Z,6.30
2019-01-18T00:25:13.275Z,4.10
2019-01-18T00:27:44.943Z,3.67
2019-01-18T00:30:18.633Z,4.20
2019-01-18T00:32:51.195Z,5.77
2019-01-18T00:35:25.920Z,5.53
2019-01-18T00:37:58.613Z,4.93
2019-01-18T00:40:31.447Z,5.23
2019-01-18T00:43:06.369Z,4.63
2019-01-18T00:45:41.553Z,4.20
2019-01-18T00:48:15.748Z,4.83
2019-01-18T00:50:49.891Z,8.93
2019-01-18T00:53:23.246Z,5.97
2019-01-18T00:55:56.381Z,3.83
2019-01-18T00:58:30.475Z,5.77
2019-01-18T01:01:06.015Z,5.43
2019-01-18T01:03:40.724Z,5.83
2019-01-18T01:06:15.829Z,5.10
2019-01-18T01:08:51.335Z,7.40
2019-01-18T01:11:30.433Z,5.83
2019-01-18T01:14:02.292Z,8.23
2019-01-18T01:16:37.442Z,7.20
2019-01-18T01:19:10.719Z,3.80
2019-01-18T01:21:43.920Z,4.77
2019-01-18T01:24:16.768Z,6.20
2019-01-18T01:26:51.477Z,7.10
2019-01-18T01:29:34.573Z,5.90
2019-01-18T01:32:07.860Z,4.37
2019-01-18T01:34:42.049Z,5.90
2019-01-18T01:37:22.953Z,3.37
2019-01-18T01:40:04.323Z,3.90
2019-01-18T01:42:37.068Z,4.23
2019-01-18T01:45:12.568Z,5.50
2019-01-18T01:47:46.805Z,6.57
2019-01-18T01:50:32.347Z,3.90
2019-01-18T01:53:07.086Z,3.27
2019-01-18T01:55:41.049Z,8.00
2019-01-18T01:58:17.083Z,7.00
2019-01-18T02:00:50.720Z,4.80
2019-01-18T02:03:23.681Z,10.63
2019-01-18T02:05:57.655Z,5.90
2019-01-18T02:08:30.846Z,5.07
2019-01-18T02:11:04.429Z,8.80
2019-01-18T02:13:37.816Z,4.00
2019-01-18T02:16:13.517Z,4.90
2019-01-18T02:18:50.607Z,5.33
2019-01-18T02:21:22.380Z,6.70
2019-01-18T02:23:54.071Z,6.90
2019-01-18T02:26:26.856Z,5.90
2019-01-18T02:28:58.583Z,3.80
2019-01-18T02:31:30.294Z,4.50
2019-01-18T02:34:01.913Z,3.63
2019-01-18T02:36:34.212Z,2.93
2019-01-18T02:39:07.920Z,7.00
2019-01-18T02:41:39.967Z,3.33
2019-01-18T02:44:12.304Z,5.37
2019-01-18T02:46:43.952Z,4.63
2019-01-18T02:49:15.596Z,5.90
2019-01-18T02:51:47.216Z,8.17
2019-01-18T02:54:19.527Z,3.40
2019-01-18T02:56:51.945Z,6.10
2019-01-18T02:59:23.536Z,5.27
2019-01-18T03:01:56.413Z,9.43
2019-01-18T03:04:29.566Z,4.40
2019-01-18T03:07:01.232Z,4.77
2019-01-18T03:09:32.821Z,4.37
2019-01-18T03:12:05.140Z,6.90
2019-01-18T03:14:36.721Z,5.70
2019-01-18T03:17:09.768Z,4.77
2019-01-18T03:19:41.388Z,16.93
2019-01-18T03:22:13.729Z,8.58
2019-01-18T03:24:45.634Z,5.57
2019-01-18T03:27:17.915Z,4.87
2019-01-18T03:29:51.320Z,4.97
2019-01-18T03:32:22.978Z,5.37
2019-01-18T03:34:54.675Z,7.27
2019-01-18T03:37:26.359Z,5.57
2019-01-18T03:39:57.969Z,5.57
2019-01-18T03:42:30.592Z,8.30
2019-01-18T03:45:02.243Z,6.10
2019-01-18T03:47:34.087Z,7.53
2019-01-18T03:50:07.308Z,6.83
2019-01-18T03:52:39.149Z,10.20
2019-01-18T03:55:11.557Z,4.85
2019-01-18T03:57:43.175Z,5.83
2019-01-18T04:00:26.221Z,5.40
2019-01-18T04:02:55.772Z,4.07
2019-01-18T04:05:28.669Z,7.50
2019-01-18T04:08:00.304Z,3.67
2019-01-18T04:10:32.020Z,9.30
2019-01-18T04:13:05.928Z,5.87
2019-01-18T04:15:46.170Z,12.00
2019-01-18T04:18:18.123Z,5.27
2019-01-18T04:20:49.756Z,4.43
2019-01-18T04:23:21.354Z,5.53
2019-01-18T04:25:52.982Z,7.50
2019-01-18T04:28:24.808Z,5.33
2019-01-18T04:30:57.100Z,9.23
2019-01-18T04:33:28.720Z,6.17
2019-01-18T04:36:00.360Z,6.70
2019-01-18T04:38:32.888Z,10.00
2019-01-18T04:41:04.676Z,8.67
2019-01-18T04:43:36.248Z,5.30
2019-01-18T04:46:09.181Z,8.57
2019-01-18T04:48:41.061Z,7.63
2019-01-18T04:51:12.687Z,5.93
2019-01-18T04:53:44.314Z,9.80
2019-01-18T04:56:17.457Z,4.92
2019-01-18T04:58:49.165Z,4.77
2019-01-18T05:01:21.505Z,7.87
2019-01-18T05:03:53.165Z,8.03
2019-01-18T05:06:24.873Z,6.43
2019-01-18T05:08:56.510Z,5.83
2019-01-18T05:11:28.326Z,5.45
2019-01-18T05:14:00.019Z,9.77
2019-01-18T05:16:32.412Z,8.77
2019-01-18T05:19:04.070Z,11.67
2019-01-18T05:21:35.744Z,8.23
2019-01-18T05:24:07.362Z,4.97
2019-01-18T05:26:40.729Z,10.40
2019-01-18T05:29:13.780Z,9.87
2019-01-18T05:31:47.064Z,7.97
2019-01-18T05:34:18.723Z,7.30
2019-01-18T05:36:50.343Z,7.60
2019-01-18T05:39:21.981Z,8.07
2019-01-18T05:41:53.727Z,11.60
2019-01-18T05:44:30.485Z,9.50
2019-01-18T05:47:07.618Z,6.50
2019-01-18T05:49:39.855Z,8.03
2019-01-18T05:52:14.126Z,9.80
2019-01-18T05:54:46.579Z,11.23
2019-01-18T05:57:24.758Z,7.95
2019-01-18T05:59:56.415Z,7.23
2019-01-18T06:02:31.763Z,6.97
2019-01-18T06:05:07.796Z,6.37
2019-01-18T06:07:52.565Z,5.27
2019-01-18T06:10:23.994Z,6.30
2019-01-18T06:12:55.673Z,6.33
2019-01-18T06:15:27.325Z,6.65
2019-01-18T06:18:05.538Z,5.97
2019-01-18T06:20:37.450Z,4.60
2019-01-18T06:23:10.881Z,7.50
2019-01-18T06:26:01.940Z,7.77
2019-01-18T06:28:38.381Z,5.03
2019-01-18T06:31:11.832Z,6.80
2019-01-18T06:33:48.132Z,6.80
2019-01-18T06:36:23.147Z,5.97
2019-01-18T06:38:55.937Z,5.57
2019-01-18T06:41:50.122Z,8.47
2019-01-18T06:44:22.084Z,7.80
2019-01-18T06:46:54.940Z,6.83
2019-01-18T06:49:26.554Z,4.73
2019-01-18T06:51:58.185Z,5.43
2019-01-18T06:54:30.454Z,7.70
2019-01-18T06:57:02.101Z,10.03
2019-01-18T06:59:34.333Z,4.90
2019-01-18T07:02:06.221Z,9.30
2019-01-18T07:04:41.483Z,6.47
2019-01-18T07:07:11.223Z,13.03
2019-01-18T07:09:42.880Z,9.13
2019-01-18T07:12:14.526Z,15.50
2019-01-18T07:14:46.880Z,9.23
2019-01-18T07:17:18.510Z,6.37
2019-01-18T07:19:50.319Z,8.20
2019-01-18T07:22:22.070Z,11.30
2019-01-18T07:24:54.358Z,9.03
2019-01-18T07:27:27.020Z,9.30
2019-01-18T07:29:58.653Z,4.97
2019-01-18T07:32:30.730Z,8.77
2019-01-18T07:35:02.360Z,4.90
2019-01-18T07:37:34.026Z,6.17
2019-01-18T07:40:06.308Z,6.63
2019-01-18T07:42:37.966Z,7.67
2019-01-18T07:45:15.578Z,9.60
2019-01-18T07:47:48.054Z,6.67
2019-01-18T07:50:20.364Z,4.80
2019-01-18T07:52:52.257Z,6.85
2019-01-18T07:55:24.830Z,7.67
2019-01-18T07:57:56.609Z,6.30
2019-01-18T08:00:30.397Z,9.60
2019-01-18T08:03:02.675Z,10.10
2019-01-18T08:05:34.621Z,7.22
2019-01-18T08:08:06.721Z,11.63
2019-01-18T08:10:39.588Z,13.20
2019-01-18T08:13:11.355Z,14.33
2019-01-18T08:15:43.012Z,7.27
2019-01-18T08:18:15.380Z,7.77
2019-01-18T08:20:47.024Z,7.83
2019-01-18T08:23:18.864Z,10.30
2019-01-18T08:25:50.557Z,9.33
2019-01-18T08:28:22.206Z,9.10
2019-01-18T08:30:53.839Z,10.03
2019-01-18T08:33:26.134Z,8.88
2019-01-18T08:35:57.759Z,7.83
2019-01-18T08:38:29.432Z,8.28
2019-01-18T08:41:01.085Z,9.80
2019-01-18T08:43:32.720Z,7.50
2019-01-18T08:46:08.523Z,9.70
2019-01-18T08:48:40.896Z,11.50
2019-01-18T08:51:12.566Z,10.00
2019-01-18T08:53:44.274Z,11.10
2019-01-18T08:56:16.836Z,10.27
2019-01-18T08:58:48.748Z,7.50
2019-01-18T09:01:20.485Z,9.53
2019-01-18T09:03:52.142Z,6.67
2019-01-18T09:06:24.335Z,6.80
2019-01-18T09:08:56.068Z,7.80
2019-01-18T09:11:27.786Z,8.60
2019-01-18T09:13:59.780Z,8.40
2019-01-18T09:16:52.410Z,12.70
2019-01-18T09:19:28.587Z,10.53
2019-01-18T09:22:03.222Z,10.47
2019-01-18T09:24:38.605Z,10.00
2019-01-18T09:27:10.457Z,9.43
2019-01-18T09:29:46.549Z,15.73
2019-01-18T09:32:18.405Z,11.47
2019-01-18T09:34:50.060Z,11.53
2019-01-18T09:37:22.446Z,11.07
2019-01-18T09:39:54.130Z,12.50
2019-01-18T09:42:27.132Z,5.93
2019-01-18T09:44:58.798Z,8.93
2019-01-18T09:47:30.460Z,13.07
2019-01-18T09:50:02.136Z,7.40
2019-01-18T09:52:40.586Z,12.43
2019-01-18T09:55:14.242Z,8.47
2019-01-18T09:57:45.962Z,8.23
2019-01-18T10:00:24.515Z,6.73
2019-01-18T10:02:56.366Z,9.27
2019-01-18T10:05:28.204Z,5.90
2019-01-18T10:08:00.479Z,6.83
2019-01-18T10:10:32.280Z,5.58
2019-01-18T10:13:04.162Z,8.77
2019-01-18T10:15:42.691Z,8.60
2019-01-18T10:18:14.872Z,5.70
2019-01-18T10:20:46.603Z,8.63
2019-01-18T10:23:19.170Z,7.40
2019-01-18T10:25:51.481Z,6.27
2019-01-18T10:28:24.760Z,6.60
2019-01-18T10:30:56.427Z,5.70
2019-01-18T10:33:28.811Z,9.13
2019-01-18T10:36:00.432Z,8.07
2019-01-18T10:38:33.749Z,6.87
2019-01-18T10:41:05.544Z,5.60
2019-01-18T10:43:37.207Z,7.93
2019-01-18T10:46:08.817Z,6.63
2019-01-18T10:48:40.517Z,10.47
2019-01-18T10:51:12.162Z,9.50
2019-01-18T10:53:44.657Z,12.43
2019-01-18T10:56:16.953Z,5.00
2019-01-18T10:58:48.593Z,10.03
2019-01-18T11:01:20.178Z,4.13
2019-01-18T11:03:52.038Z,5.83
2019-01-18T11:06:23.675Z,5.93
2019-01-18T11:08:56.024Z,9.07
2019-01-18T11:11:27.665Z,5.60
2019-01-18T11:13:59.383Z,11.73
2019-01-18T11:16:31.024Z,7.37
2019-01-18T11:19:02.689Z,7.13
2019-01-18T11:21:34.895Z,7.72
2019-01-18T11:24:07.229Z,6.77
2019-01-18T11:26:38.989Z,7.90
2019-01-18T11:29:10.680Z,7.58
2019-01-18T11:31:42.298Z,4.87
2019-01-18T11:34:13.960Z,5.27
2019-01-18T11:36:45.585Z,6.87
2019-01-18T11:39:17.870Z,9.00
2019-01-18T11:41:49.514Z,5.33
2019-01-18T11:44:21.212Z,10.72
2019-01-18T11:46:52.964Z,5.23
2019-01-18T11:49:24.644Z,7.83
2019-01-18T11:51:56.267Z,3.70
2019-01-18T11:54:29.296Z,7.63
2019-01-18T11:57:00.969Z,4.70
2019-01-18T11:59:32.708Z,5.00
2019-01-18T12:02:04.588Z,4.27
2019-01-18T12:04:36.249Z,4.70
2019-01-18T12:07:08.108Z,3.20
2019-01-18T12:09:39.839Z,3.17
2019-01-18T12:12:12.144Z,4.23
2019-01-18T12:14:43.859Z,5.43
2019-01-18T12:17:15.487Z,5.17
2019-01-18T12:19:47.318Z,10.43
2019-01-18T12:22:19.714Z,15.60
2019-01-18T12:24:51.436Z,6.83
2019-01-18T12:27:23.801Z,6.93
2019-01-18T12:29:55.426Z,8.17
2019-01-18T12:32:28.855Z,7.07
2019-01-18T12:35:00.643Z,6.63
2019-01-18T12:37:33.287Z,7.12
2019-01-18T12:40:05.285Z,7.03
2019-01-18T12:42:38.667Z,10.10
2019-01-18T12:45:15.357Z,4.93
2019-01-18T12:47:47.049Z,8.20
2019-01-18T12:50:41.030Z,4.10
2019-01-18T12:53:12.672Z,7.80
2019-01-18T12:55:45.084Z,8.40
2019-01-18T12:58:17.232Z,8.13
2019-01-18T13:00:48.919Z,6.67
2019-01-18T13:03:20.850Z,5.37
2019-01-18T13:05:54.350Z,12.27
2019-01-18T13:08:26.160Z,11.40
2019-01-18T13:10:59.335Z,14.83
2019-01-18T13:13:30.988Z,11.57
2019-01-18T13:16:30.258Z,18.17
2019-01-18T13:19:09.768Z,10.10
2019-01-18T13:21:41.462Z,9.10
2019-01-18T13:24:13.177Z,12.37
2019-01-18T13:26:45.124Z,15.57
2019-01-18T13:29:16.924Z,14.63
2019-01-18T13:31:48.554Z,12.80
2019-01-18T13:34:27.296Z,12.13
2019-01-18T13:37:05.371Z,4.07
2019-01-18T13:39:41.834Z,4.00
2019-01-18T13:42:19.416Z,3.80
2019-01-18T13:44:52.774Z,12.63
2019-01-18T13:47:30.850Z,36.37
2019-01-18T13:50:13.760Z,20.90
2019-01-18T13:52:45.891Z,9.53
2019-01-18T13:55:25.743Z,6.20
2019-01-18T13:57:59.267Z,5.40
2019-01-18T14:00:35.016Z,5.93
2019-01-18T14:03:15.604Z,6.70
2019-01-18T14:05:55.608Z,8.70
2019-01-18T14:08:35.738Z,5.67
2019-01-18T14:11:16.592Z,4.07
2019-01-18T14:13:54.547Z,5.10
2019-01-18T14:16:26.816Z,5.77
2019-01-18T14:18:58.602Z,4.63
2019-01-18T14:21:31.314Z,4.90
2019-01-18T14:24:06.675Z,3.40
2019-01-18T14:26:43.262Z,6.77
2019-01-18T14:29:20.532Z,7.53
2019-01-18T14:31:57.114Z,6.20
2019-01-18T14:34:35.323Z,6.08
2019-01-18T14:37:11.675Z,3.80
2019-01-18T14:39:43.538Z,5.67
2019-01-18T14:42:15.913Z,6.80
2019-01-18T14:44:47.582Z,7.33
2019-01-18T14:47:19.902Z,3.93
2019-01-18T14:49:51.604Z,2.90
2019-01-18T14:52:23.325Z,3.80
2019-01-18T14:54:54.940Z,7.42
2019-01-18T14:57:26.608Z,7.07
2019-01-18T14:59:58.292Z,12.40
2019-01-18T15:02:30.827Z,26.20
2019-01-18T15:05:02.459Z,17.00
2019-01-18T15:07:34.139Z,18.67
2019-01-18T15:10:07.775Z,10.73
2019-01-18T15:12:39.467Z,12.57
2019-01-18T15:15:14.069Z,17.93
2019-01-18T15:17:46.721Z,8.67
2019-01-18T15:20:22.917Z,14.10
2019-01-18T15:22:54.740Z,7.20
2019-01-18T15:25:27.064Z,21.93
2019-01-18T15:27:58.759Z,12.97
2019-01-18T15:30:31.797Z,15.17
2019-01-18T15:33:09.148Z,14.40
2019-01-18T15:35:40.490Z,14.30
2019-01-18T15:38:13.333Z,11.80
2019-01-18T15:40:49.861Z,7.63
2019-01-18T15:43:23.311Z,7.17
2019-01-18T15:45:55.040Z,11.88
2019-01-18T15:48:27.354Z,10.57
2019-01-18T15:50:59.048Z,7.23
2019-01-18T15:53:31.570Z,8.70
2019-01-18T15:56:04.253Z,18.23
2019-01-18T15:58:36.078Z,22.63
2019-01-18T16:01:07.866Z,12.23
2019-01-18T16:03:41.513Z,12.60
2019-01-18T16:06:13.181Z,13.23
2019-01-18T16:08:44.909Z,14.80
2019-01-18T16:11:18.911Z,9.23
2019-01-18T16:13:51.008Z,12.00
2019-01-18T16:16:54.381Z,14.50
2019-01-18T16:19:27.065Z,15.50
2019-01-18T16:21:58.809Z,9.30
2019-01-18T16:24:31.311Z,10.90
2019-01-18T16:27:02.960Z,10.80
2019-01-18T16:29:38.641Z,14.67
2019-01-18T16:32:10.466Z,11.40
2019-01-18T16:34:43.156Z,12.70
2019-01-18T16:37:15.052Z,15.40
2019-01-18T16:39:46.778Z,17.30
2019-01-18T16:42:20.642Z,13.60
2019-01-18T16:44:54.253Z,14.23
2019-01-18T16:47:26.955Z,15.20
2019-01-18T16:49:59.378Z,9.80
2019-01-18T16:52:31.157Z,13.40
2019-01-18T16:55:03.016Z,13.20
2019-01-18T16:57:34.795Z,11.00
2019-01-18T17:00:14.971Z,16.03
2019-01-18T17:02:46.893Z,18.20
2019-01-18T17:05:18.600Z,12.60
2019-01-18T17:07:50.767Z,10.43
2019-01-18T17:10:22.697Z,10.80
2019-01-18T17:12:54.494Z,10.90
2019-01-18T17:15:26.383Z,15.00
2019-01-18T17:17:58.282Z,9.20
2019-01-18T17:20:33.626Z,8.80
2019-01-18T17:23:05.845Z,9.67
2019-01-18T17:25:38.043Z,15.70
2019-01-18T17:28:09.846Z,14.03
2019-01-18T17:30:41.575Z,15.30
2019-01-18T17:33:13.331Z,17.90
2019-01-18T17:36:29.939Z,18.77
2019-01-18T17:39:44.958Z,15.07
2019-01-18T17:43:05.694Z,16.70
2019-01-18T17:46:42.059Z,19.75
2019-01-18T17:50:06.640Z,20.62
2019-01-18T17:53:44.339Z,24.77
2019-01-18T17:56:59.365Z,26.63
2019-01-18T18:00:28.201Z,21.80
2019-01-18T18:03:36.555Z,30.02
2019-01-18T18:06:55.360Z,22.60
2019-01-18T18:10:05.372Z,18.73
2019-01-18T18:13:49.851Z,21.83
2019-01-18T18:17:04.474Z,20.05
2019-01-18T18:20:40.950Z,22.47
2019-01-18T18:23:52.244Z,17.13
2019-01-18T18:27:33.413Z,15.80
2019-01-18T18:30:47.733Z,11.38
2019-01-18T18:34:34.756Z,15.73
2019-01-18T18:38:05.680Z,13.17
2019-01-18T18:41:41.827Z,14.00
2019-01-18T18:45:15.828Z,12.93
2019-01-18T18:48:20.305Z,12.27
2019-01-18T18:51:35.669Z,11.50
2019-01-18T18:55:04.876Z,11.17
2019-01-18T18:58:55.783Z,10.33
2019-01-18T19:02:42.972Z,9.80
2019-01-18T19:06:26.195Z,9.80
2019-01-18T19:10:01.060Z,6.93
2019-01-18T19:13:30.956Z,13.47
2019-01-18T19:16:31.349Z,13.37
2019-01-18T19:19:59.318Z,12.07
2019-01-18T19:23:34.757Z,16.50
2019-01-18T19:26:40.845Z,15.67
2019-01-18T19:30:06.305Z,11.27
2019-01-18T19:33:23.881Z,12.80
2019-01-18T19:36:32.744Z,15.30
2019-01-18T19:39:51.720Z,13.57
2019-01-18T19:43:50.966Z,16.55
2019-01-18T19:47:16.294Z,11.20
2019-01-18T19:50:43.906Z,14.10
2019-01-18T19:53:48.010Z,16.70
2019-01-18T19:56:57.210Z,17.80
2019-01-18T20:00:29.487Z,15.07
2019-01-18T20:03:54.031Z,15.20
2019-01-18T20:07:13.219Z,13.07
2019-01-18T20:10:44.713Z,13.33
2019-01-18T20:13:57.561Z,13.00
2019-01-18T20:17:07.101Z,16.63
2019-01-18T20:20:29.377Z,18.02
2019-01-18T20:23:39.965Z,12.20
2019-01-18T20:27:05.270Z,11.40
2019-01-18T20:30:30.515Z,17.63
2019-01-18T20:34:21.476Z,12.70
2019-01-18T20:37:47.201Z,11.57
2019-01-18T20:41:03.933Z,12.30
2019-01-18T20:44:23.034Z,15.20
2019-01-18T20:47:58.078Z,13.97
2019-01-18T20:51:41.507Z,15.60
2019-01-18T20:55:21.300Z,16.45
2019-01-18T20:58:55.492Z,11.97
2019-01-18T21:02:05.163Z,18.90
2019-01-18T21:05:40.286Z,15.70
2019-01-18T21:08:55.870Z,11.50
2019-01-18T21:12:54.826Z,16.70
2019-01-18T21:16:41.569Z,16.80
2019-01-18T21:20:44.735Z,15.37
2019-01-18T21:24:11.740Z,15.80
2019-01-18T21:27:36.798Z,17.10
2019-01-18T21:31:37.278Z,14.87
2019-01-18T21:35:20.746Z,14.30
2019-01-18T21:38:47.689Z,20.77
2019-01-18T21:42:14.504Z,13.47
2019-01-18T21:45:08.500Z,17.03
2019-01-18T21:47:37.848Z,13.33
2019-01-18T21:51:11.741Z,16.47
2019-01-18T21:54:06.361Z,16.63
2019-01-18T21:57:22.841Z,20.73
2019-01-18T22:00:44.659Z,14.53
2019-01-18T22:03:59.130Z,15.27
2019-01-18T22:07:27.470Z,16.67
2019-01-18T22:10:34.886Z,12.40
2019-01-18T22:14:02.109Z,16.05
2019-01-18T22:17:38.370Z,11.07
2019-01-18T22:21:03.047Z,11.10
2019-01-18T22:24:16.098Z,13.47
2019-01-18T22:27:57.301Z,13.10
2019-01-18T22:31:15.631Z,12.80
2019-01-18T22:34:23.942Z,12.20
2019-01-18T22:37:47.447Z,13.40
2019-01-18T22:41:21.638Z,13.13
2019-01-18T22:45:03.381Z,17.23
2019-01-18T22:48:17.536Z,13.70
2019-01-18T22:51:57.843Z,16.07
2019-01-18T22:55:34.092Z,17.70
2019-01-18T22:59:03.750Z,17.47
2019-01-18T23:02:09.040Z,16.80
2019-01-18T23:05:38.613Z,17.03
2019-01-18T23:09:02.679Z,16.50
2019-01-18T23:12:33.155Z,15.47
2019-01-18T23:16:06.263Z,16.00
2019-01-18T23:18:54.273Z,13.77
2019-01-18T23:22:15.530Z,15.47
2019-01-18T23:25:01.055Z,17.73
2019-01-18T23:28:17.498Z,12.57
2019-01-18T23:31:09.442Z,16.17
2019-01-18T23:34:36.075Z,16.82
2019-01-18T23:37:29.319Z,10.97
2019-01-18T23:40:49.858Z,10.97
2019-01-18T23:44:04.443Z,11.67
2019-01-18T23:47:17.880Z,11.43
2019-01-18T23:50:52.839Z,13.22
2019-01-18T23:53:58.023Z,14.47
2019-01-18T23:57:28.957Z,10.13
